sensor_id;sensor_type;location;lat;lon;timestamp;temperature;humidity
66119;DHT22;52912;48.564;9.302;2023-04-25T00:01:21;8.15;82.13
66119;DHT22;52912;48.564;9.302;2023-04-25T00:03:47;8.13;82.18
66119;DHT22;52912;48.564;9.302;2023-04-25T00:06:12;8.08;82.07
66119;DHT22;52912;48.564;9.302;2023-04-25T00:08:38;8.12;82.02
66119;DHT22;52912;48.564;9.302;2023-04-25T00:11:04;8.15;81.93
66119;DHT22;52912;48.564;9.302;2023-04-25T00:13:29;8.08;82.19
66119;DHT22;52912;48.564;9.302;2023-04-25T00:15:56;8.08;82.20
66119;DHT22;52912;48.564;9.302;2023-04-25T00:18:22;8.06;82.46
66119;DHT22;52912;48.564;9.302;2023-04-25T00:20:48;8.06;82.77
66119;DHT22;52912;48.564;9.302;2023-04-25T00:23:13;8.11;83.81
66119;DHT22;52912;48.564;9.302;2023-04-25T00:25:39;8.06;83.85
66119;DHT22;52912;48.564;9.302;2023-04-25T00:28:04;8.02;83.93
66119;DHT22;52912;48.564;9.302;2023-04-25T00:30:30;8.06;83.60
66119;DHT22;52912;48.564;9.302;2023-04-25T00:32:56;8.03;83.00
66119;DHT22;52912;48.564;9.302;2023-04-25T00:35:22;8.13;82.71
66119;DHT22;52912;48.564;9.302;2023-04-25T00:37:47;8.15;82.46
66119;DHT22;52912;48.564;9.302;2023-04-25T00:40:13;8.06;82.57
66119;DHT22;52912;48.564;9.302;2023-04-25T00:42:39;8.05;82.53
66119;DHT22;52912;48.564;9.302;2023-04-25T00:45:06;7.97;82.99
66119;DHT22;52912;48.564;9.302;2023-04-25T00:47:32;8.02;82.69
66119;DHT22;52912;48.564;9.302;2023-04-25T00:49:59;8.05;82.65
66119;DHT22;52912;48.564;9.302;2023-04-25T00:52:25;8.03;82.58
66119;DHT22;52912;48.564;9.302;2023-04-25T00:54:50;8.11;82.50
66119;DHT22;52912;48.564;9.302;2023-04-25T00:57:16;8.12;82.51
66119;DHT22;52912;48.564;9.302;2023-04-25T00:59:45;8.13;82.51
66119;DHT22;52912;48.564;9.302;2023-04-25T01:02:10;8.16;82.83
66119;DHT22;52912;48.564;9.302;2023-04-25T01:04:36;8.16;82.67
66119;DHT22;52912;48.564;9.302;2023-04-25T01:07:03;8.16;82.68
66119;DHT22;52912;48.564;9.302;2023-04-25T01:09:30;8.15;82.55
66119;DHT22;52912;48.564;9.302;2023-04-25T01:11:55;8.22;82.80
66119;DHT22;52912;48.564;9.302;2023-04-25T01:14:21;8.19;82.70
66119;DHT22;52912;48.564;9.302;2023-04-25T01:16:46;8.16;83.05
66119;DHT22;52912;48.564;9.302;2023-04-25T01:19:16;8.16;83.02
66119;DHT22;52912;48.564;9.302;2023-04-25T01:21:43;8.16;83.47
66119;DHT22;52912;48.564;9.302;2023-04-25T01:24:09;8.12;83.14
66119;DHT22;52912;48.564;9.302;2023-04-25T01:26:35;8.13;83.31
66119;DHT22;52912;48.564;9.302;2023-04-25T01:29:01;8.15;83.38
66119;DHT22;52912;48.564;9.302;2023-04-25T01:31:27;8.15;83.80
66119;DHT22;52912;48.564;9.302;2023-04-25T01:33:53;8.11;83.13
66119;DHT22;52912;48.564;9.302;2023-04-25T01:36:18;8.05;83.94
66119;DHT22;52912;48.564;9.302;2023-04-25T01:38:45;8.02;84.25
66119;DHT22;52912;48.564;9.302;2023-04-25T01:41:11;7.99;84.50
66119;DHT22;52912;48.564;9.302;2023-04-25T01:43:36;7.95;84.73
66119;DHT22;52912;48.564;9.302;2023-04-25T01:46:02;7.92;84.95
66119;DHT22;52912;48.564;9.302;2023-04-25T01:48:27;7.94;84.66
66119;DHT22;52912;48.564;9.302;2023-04-25T01:50:53;8.01;84.40
66119;DHT22;52912;48.564;9.302;2023-04-25T01:53:18;8.02;84.45
66119;DHT22;52912;48.564;9.302;2023-04-25T01:55:45;8.05;84.04
66119;DHT22;52912;48.564;9.302;2023-04-25T01:58:11;7.98;84.30
66119;DHT22;52912;48.564;9.302;2023-04-25T02:00:36;7.91;84.45
66119;DHT22;52912;48.564;9.302;2023-04-25T02:03:02;7.90;84.47
66119;DHT22;52912;48.564;9.302;2023-04-25T02:05:27;7.94;84.55
66119;DHT22;52912;48.564;9.302;2023-04-25T02:07:53;7.99;85.21
66119;DHT22;52912;48.564;9.302;2023-04-25T02:10:18;7.98;85.53
66119;DHT22;52912;48.564;9.302;2023-04-25T02:12:45;8.01;85.74
66119;DHT22;52912;48.564;9.302;2023-04-25T02:15:10;7.94;86.47
66119;DHT22;52912;48.564;9.302;2023-04-25T02:17:36;7.99;85.91
66119;DHT22;52912;48.564;9.302;2023-04-25T02:20:01;8.02;86.99
66119;DHT22;52912;48.564;9.302;2023-04-25T02:22:27;7.98;86.30
66119;DHT22;52912;48.564;9.302;2023-04-25T02:24:53;7.95;87.36
66119;DHT22;52912;48.564;9.302;2023-04-25T02:27:18;7.88;86.82
66119;DHT22;52912;48.564;9.302;2023-04-25T02:29:45;7.87;86.73
66119;DHT22;52912;48.564;9.302;2023-04-25T02:32:11;7.90;86.97
66119;DHT22;52912;48.564;9.302;2023-04-25T02:34:36;7.88;87.05
66119;DHT22;52912;48.564;9.302;2023-04-25T02:37:02;7.90;87.02
66119;DHT22;52912;48.564;9.302;2023-04-25T02:39:27;7.87;87.56
66119;DHT22;52912;48.564;9.302;2023-04-25T02:41:53;7.70;88.28
66119;DHT22;52912;48.564;9.302;2023-04-25T02:44:18;7.64;88.64
66119;DHT22;52912;48.564;9.302;2023-04-25T02:46:45;7.66;88.15
66119;DHT22;52912;48.564;9.302;2023-04-25T02:49:10;7.62;87.89
66119;DHT22;52912;48.564;9.302;2023-04-25T02:51:36;7.60;86.67
66119;DHT22;52912;48.564;9.302;2023-04-25T02:54:01;7.62;86.86
66119;DHT22;52912;48.564;9.302;2023-04-25T02:56:27;7.52;87.13
66119;DHT22;52912;48.564;9.302;2023-04-25T02:58:52;7.67;86.92
66119;DHT22;52912;48.564;9.302;2023-04-25T03:01:18;7.56;86.84
66119;DHT22;52912;48.564;9.302;2023-04-25T03:03:44;7.55;87.25
66119;DHT22;52912;48.564;9.302;2023-04-25T03:06:10;7.56;86.68
66119;DHT22;52912;48.564;9.302;2023-04-25T03:08:35;7.55;86.87
66119;DHT22;52912;48.564;9.302;2023-04-25T03:11:01;7.60;86.12
66119;DHT22;52912;48.564;9.302;2023-04-25T03:13:26;7.55;86.10
66119;DHT22;52912;48.564;9.302;2023-04-25T03:15:52;7.56;85.38
66119;DHT22;52912;48.564;9.302;2023-04-25T03:18:17;7.57;85.78
66119;DHT22;52912;48.564;9.302;2023-04-25T03:20:44;7.46;85.85
66119;DHT22;52912;48.564;9.302;2023-04-25T03:23:09;7.43;86.42
66119;DHT22;52912;48.564;9.302;2023-04-25T03:25:35;7.35;86.27
66119;DHT22;52912;48.564;9.302;2023-04-25T03:28:00;7.43;86.27
66119;DHT22;52912;48.564;9.302;2023-04-25T03:30:26;7.33;86.18
66119;DHT22;52912;48.564;9.302;2023-04-25T03:32:51;7.32;86.36
66119;DHT22;52912;48.564;9.302;2023-04-25T03:35:17;7.30;86.45
66119;DHT22;52912;48.564;9.302;2023-04-25T03:37:44;7.35;86.75
66119;DHT22;52912;48.564;9.302;2023-04-25T03:40:09;7.45;86.38
66119;DHT22;52912;48.564;9.302;2023-04-25T03:42:35;7.40;86.76
66119;DHT22;52912;48.564;9.302;2023-04-25T03:45:00;7.49;86.40
66119;DHT22;52912;48.564;9.302;2023-04-25T03:47:26;7.49;86.24
66119;DHT22;52912;48.564;9.302;2023-04-25T03:49:51;7.46;86.25
66119;DHT22;52912;48.564;9.302;2023-04-25T03:52:17;7.43;86.13
66119;DHT22;52912;48.564;9.302;2023-04-25T03:54:43;7.40;85.95
66119;DHT22;52912;48.564;9.302;2023-04-25T03:57:09;7.43;86.44
66119;DHT22;52912;48.564;9.302;2023-04-25T03:59:34;7.56;85.69
66119;DHT22;52912;48.564;9.302;2023-04-25T04:02:00;7.47;85.42
66119;DHT22;52912;48.564;9.302;2023-04-25T04:04:25;7.47;85.70
66119;DHT22;52912;48.564;9.302;2023-04-25T04:06:51;7.39;85.96
66119;DHT22;52912;48.564;9.302;2023-04-25T04:09:16;7.40;86.34
66119;DHT22;52912;48.564;9.302;2023-04-25T04:11:43;7.50;86.14
66119;DHT22;52912;48.564;9.302;2023-04-25T04:14:09;7.49;86.04
66119;DHT22;52912;48.564;9.302;2023-04-25T04:16:34;7.43;85.77
66119;DHT22;52912;48.564;9.302;2023-04-25T04:19:00;7.39;86.13
66119;DHT22;52912;48.564;9.302;2023-04-25T04:21:25;7.36;86.23
66119;DHT22;52912;48.564;9.302;2023-04-25T04:23:50;7.38;86.04
66119;DHT22;52912;48.564;9.302;2023-04-25T04:26:16;7.38;86.57
66119;DHT22;52912;48.564;9.302;2023-04-25T04:28:43;7.30;86.48
66119;DHT22;52912;48.564;9.302;2023-04-25T04:31:08;7.35;86.50
66119;DHT22;52912;48.564;9.302;2023-04-25T04:33:34;7.26;85.88
66119;DHT22;52912;48.564;9.302;2023-04-25T04:35:59;7.28;86.57
66119;DHT22;52912;48.564;9.302;2023-04-25T04:38:25;7.28;86.50
66119;DHT22;52912;48.564;9.302;2023-04-25T04:40:50;7.35;87.34
66119;DHT22;52912;48.564;9.302;2023-04-25T04:43:16;7.40;87.09
66119;DHT22;52912;48.564;9.302;2023-04-25T04:45:42;7.45;86.86
66119;DHT22;52912;48.564;9.302;2023-04-25T04:48:08;7.46;86.92
66119;DHT22;52912;48.564;9.302;2023-04-25T04:50:33;7.50;86.74
66119;DHT22;52912;48.564;9.302;2023-04-25T04:52:59;7.55;86.43
66119;DHT22;52912;48.564;9.302;2023-04-25T04:55:24;7.47;86.56
66119;DHT22;52912;48.564;9.302;2023-04-25T04:57:50;7.49;86.53
66119;DHT22;52912;48.564;9.302;2023-04-25T05:00:16;7.49;86.54
66119;DHT22;52912;48.564;9.302;2023-04-25T05:02:42;7.49;87.03
66119;DHT22;52912;48.564;9.302;2023-04-25T05:05:08;7.47;87.14
66119;DHT22;52912;48.564;9.302;2023-04-25T05:07:34;7.45;86.97
66119;DHT22;52912;48.564;9.302;2023-04-25T05:09:59;7.52;87.30
66119;DHT22;52912;48.564;9.302;2023-04-25T05:12:25;7.53;88.09
66119;DHT22;52912;48.564;9.302;2023-04-25T05:14:50;7.64;88.28
66119;DHT22;52912;48.564;9.302;2023-04-25T05:17:15;7.63;87.31
66119;DHT22;52912;48.564;9.302;2023-04-25T05:19:42;7.55;88.53
66119;DHT22;52912;48.564;9.302;2023-04-25T05:22:08;7.45;88.99
66119;DHT22;52912;48.564;9.302;2023-04-25T05:24:33;7.45;89.01
66119;DHT22;52912;48.564;9.302;2023-04-25T05:26:59;7.46;88.78
66119;DHT22;52912;48.564;9.302;2023-04-25T05:29:24;7.52;88.58
66119;DHT22;52912;48.564;9.302;2023-04-25T05:31:49;7.57;88.03
66119;DHT22;52912;48.564;9.302;2023-04-25T05:34:15;7.59;87.66
66119;DHT22;52912;48.564;9.302;2023-04-25T05:36:42;7.56;87.95
66119;DHT22;52912;48.564;9.302;2023-04-25T05:39:07;7.63;87.81
66119;DHT22;52912;48.564;9.302;2023-04-25T05:41:33;7.66;86.97
66119;DHT22;52912;48.564;9.302;2023-04-25T05:43:58;7.67;86.48
66119;DHT22;52912;48.564;9.302;2023-04-25T05:46:24;7.59;86.98
66119;DHT22;52912;48.564;9.302;2023-04-25T05:48:49;7.66;87.08
66119;DHT22;52912;48.564;9.302;2023-04-25T05:51:14;7.71;86.64
66119;DHT22;52912;48.564;9.302;2023-04-25T05:53:41;7.74;87.09
66119;DHT22;52912;48.564;9.302;2023-04-25T05:56:07;7.80;86.90
66119;DHT22;52912;48.564;9.302;2023-04-25T05:58:33;7.78;86.69
66119;DHT22;52912;48.564;9.302;2023-04-25T06:00:58;7.94;87.01
66119;DHT22;52912;48.564;9.302;2023-04-25T06:03:23;7.98;87.19
66119;DHT22;52912;48.564;9.302;2023-04-25T06:05:49;7.90;86.68
66119;DHT22;52912;48.564;9.302;2023-04-25T06:08:14;8.09;86.21
66119;DHT22;52912;48.564;9.302;2023-04-25T06:10:41;8.09;85.98
66119;DHT22;52912;48.564;9.302;2023-04-25T06:13:07;8.19;86.25
66119;DHT22;52912;48.564;9.302;2023-04-25T06:15:32;8.24;85.45
66119;DHT22;52912;48.564;9.302;2023-04-25T06:17:58;8.29;84.98
66119;DHT22;52912;48.564;9.302;2023-04-25T06:20:23;8.42;84.65
66119;DHT22;52912;48.564;9.302;2023-04-25T06:22:49;8.61;84.16
66119;DHT22;52912;48.564;9.302;2023-04-25T06:25:15;8.59;83.91
66119;DHT22;52912;48.564;9.302;2023-04-25T06:27:41;8.70;83.80
66119;DHT22;52912;48.564;9.302;2023-04-25T06:30:08;8.59;84.08
66119;DHT22;52912;48.564;9.302;2023-04-25T06:32:33;8.65;83.77
66119;DHT22;52912;48.564;9.302;2023-04-25T06:34:59;8.71;82.91
66119;DHT22;52912;48.564;9.302;2023-04-25T06:37:24;8.61;83.25
66119;DHT22;52912;48.564;9.302;2023-04-25T06:39:49;8.64;83.11
66119;DHT22;52912;48.564;9.302;2023-04-25T06:42:15;8.75;83.70
66119;DHT22;52912;48.564;9.302;2023-04-25T06:44:42;8.81;83.30
66119;DHT22;52912;48.564;9.302;2023-04-25T06:47:07;8.82;82.13
66119;DHT22;52912;48.564;9.302;2023-04-25T06:49:33;8.81;81.58
66119;DHT22;52912;48.564;9.302;2023-04-25T06:51:58;8.78;82.29
66119;DHT22;52912;48.564;9.302;2023-04-25T06:54:23;8.74;82.32
66119;DHT22;52912;48.564;9.302;2023-04-25T06:56:49;8.71;82.05
66119;DHT22;52912;48.564;9.302;2023-04-25T06:59:14;8.68;82.07
66119;DHT22;52912;48.564;9.302;2023-04-25T07:01:41;8.57;82.60
66119;DHT22;52912;48.564;9.302;2023-04-25T07:04:06;8.54;82.61
66119;DHT22;52912;48.564;9.302;2023-04-25T07:06:32;8.57;82.82
66119;DHT22;52912;48.564;9.302;2023-04-25T07:08:57;8.63;83.50
66119;DHT22;52912;48.564;9.302;2023-04-25T07:11:23;8.73;83.97
66119;DHT22;52912;48.564;9.302;2023-04-25T07:13:48;8.64;84.12
66119;DHT22;52912;48.564;9.302;2023-04-25T07:16:14;8.73;84.19
66119;DHT22;52912;48.564;9.302;2023-04-25T07:18:41;8.70;84.01
66119;DHT22;52912;48.564;9.302;2023-04-25T07:21:06;8.70;85.09
66119;DHT22;52912;48.564;9.302;2023-04-25T07:23:32;8.65;85.62
66119;DHT22;52912;48.564;9.302;2023-04-25T07:25:57;8.68;85.59
66119;DHT22;52912;48.564;9.302;2023-04-25T07:28:23;8.63;86.22
66119;DHT22;52912;48.564;9.302;2023-04-25T07:30:48;8.57;86.46
66119;DHT22;52912;48.564;9.302;2023-04-25T07:33:13;8.57;86.54
66119;DHT22;52912;48.564;9.302;2023-04-25T07:35:40;8.52;86.78
66119;DHT22;52912;48.564;9.302;2023-04-25T07:38:06;8.46;87.24
66119;DHT22;52912;48.564;9.302;2023-04-25T07:40:31;8.26;87.14
66119;DHT22;52912;48.564;9.302;2023-04-25T07:42:57;8.28;86.92
66119;DHT22;52912;48.564;9.302;2023-04-25T07:45:22;8.22;87.68
66119;DHT22;52912;48.564;9.302;2023-04-25T07:47:48;8.29;88.33
66119;DHT22;52912;48.564;9.302;2023-04-25T07:50:13;8.21;88.38
66119;DHT22;52912;48.564;9.302;2023-04-25T07:52:40;8.18;87.86
66119;DHT22;52912;48.564;9.302;2023-04-25T07:55:05;8.30;88.87
66119;DHT22;52912;48.564;9.302;2023-04-25T07:57:31;8.18;88.69
66119;DHT22;52912;48.564;9.302;2023-04-25T07:59:56;8.21;88.82
66119;DHT22;52912;48.564;9.302;2023-04-25T08:02:22;8.30;88.84
66119;DHT22;52912;48.564;9.302;2023-04-25T08:04:47;8.36;89.40
66119;DHT22;52912;48.564;9.302;2023-04-25T08:07:13;8.33;89.61
66119;DHT22;52912;48.564;9.302;2023-04-25T08:09:40;8.30;89.82
66119;DHT22;52912;48.564;9.302;2023-04-25T08:12:05;8.29;89.87
66119;DHT22;52912;48.564;9.302;2023-04-25T08:14:31;8.25;89.39
66119;DHT22;52912;48.564;9.302;2023-04-25T08:16:56;8.21;90.22
66119;DHT22;52912;48.564;9.302;2023-04-25T08:19:22;8.24;89.92
66119;DHT22;52912;48.564;9.302;2023-04-25T08:21:47;8.02;90.80
66119;DHT22;52912;48.564;9.302;2023-04-25T08:24:12;8.15;91.17
66119;DHT22;52912;48.564;9.302;2023-04-25T08:26:39;8.12;90.61
66119;DHT22;52912;48.564;9.302;2023-04-25T08:29:05;7.67;90.83
66119;DHT22;52912;48.564;9.302;2023-04-25T08:31:30;7.47;90.72
66119;DHT22;52912;48.564;9.302;2023-04-25T08:33:56;7.59;90.84
66119;DHT22;52912;48.564;9.302;2023-04-25T08:36:21;7.53;91.22
66119;DHT22;52912;48.564;9.302;2023-04-25T08:38:47;7.67;90.58
66119;DHT22;52912;48.564;9.302;2023-04-25T08:41:13;7.67;90.68
66119;DHT22;52912;48.564;9.302;2023-04-25T08:43:42;7.75;91.17
66119;DHT22;52912;48.564;9.302;2023-04-25T08:46:07;7.74;90.51
66119;DHT22;52912;48.564;9.302;2023-04-25T08:48:33;7.78;90.05
66119;DHT22;52912;48.564;9.302;2023-04-25T08:51:01;7.90;90.18
66119;DHT22;52912;48.564;9.302;2023-04-25T08:53:29;7.99;89.60
66119;DHT22;52912;48.564;9.302;2023-04-25T08:55:56;7.84;89.61
66119;DHT22;52912;48.564;9.302;2023-04-25T08:58:22;7.84;89.68
66119;DHT22;52912;48.564;9.302;2023-04-25T09:00:50;7.92;89.66
66119;DHT22;52912;48.564;9.302;2023-04-25T09:03:16;7.88;90.34
66119;DHT22;52912;48.564;9.302;2023-04-25T09:05:42;7.95;89.41
66119;DHT22;52912;48.564;9.302;2023-04-25T09:08:08;8.01;89.34
66119;DHT22;52912;48.564;9.302;2023-04-25T09:10:34;7.99;89.01
66119;DHT22;52912;48.564;9.302;2023-04-25T09:13:03;8.06;88.10
66119;DHT22;52912;48.564;9.302;2023-04-25T09:15:29;8.05;87.58
66119;DHT22;52912;48.564;9.302;2023-04-25T09:17:57;7.97;87.05
66119;DHT22;52912;48.564;9.302;2023-04-25T09:20:22;8.05;87.25
66119;DHT22;52912;48.564;9.302;2023-04-25T09:22:48;7.99;85.21
66119;DHT22;52912;48.564;9.302;2023-04-25T09:25:13;7.98;84.32
66119;DHT22;52912;48.564;9.302;2023-04-25T09:27:49;7.95;87.00
66119;DHT22;52912;48.564;9.302;2023-04-25T09:30:15;7.98;88.99
66119;DHT22;52912;48.564;9.302;2023-04-25T09:32:42;7.78;90.45
66119;DHT22;52912;48.564;9.302;2023-04-25T09:35:09;7.71;90.69
66119;DHT22;52912;48.564;9.302;2023-04-25T09:37:35;7.77;90.82
66119;DHT22;52912;48.564;9.302;2023-04-25T09:40:05;7.77;90.93
66119;DHT22;52912;48.564;9.302;2023-04-25T09:42:31;7.59;90.97
66119;DHT22;52912;48.564;9.302;2023-04-25T09:44:58;7.64;92.12
66119;DHT22;52912;48.564;9.302;2023-04-25T09:47:26;7.47;91.15
66119;DHT22;52912;48.564;9.302;2023-04-25T09:49:52;7.66;91.15
66119;DHT22;52912;48.564;9.302;2023-04-25T09:52:20;7.47;91.16
66119;DHT22;52912;48.564;9.302;2023-04-25T09:54:47;7.36;92.16
66119;DHT22;52912;48.564;9.302;2023-04-25T09:57:14;7.47;92.35
66119;DHT22;52912;48.564;9.302;2023-04-25T09:59:44;7.43;90.88
66119;DHT22;52912;48.564;9.302;2023-04-25T10:02:10;7.42;90.48
66119;DHT22;52912;48.564;9.302;2023-04-25T10:04:37;7.43;91.26
66119;DHT22;52912;48.564;9.302;2023-04-25T10:07:05;7.39;90.96
66119;DHT22;52912;48.564;9.302;2023-04-25T10:09:33;7.60;91.96
66119;DHT22;52912;48.564;9.302;2023-04-25T10:11:59;7.63;91.34
66119;DHT22;52912;48.564;9.302;2023-04-25T10:14:25;7.62;89.27
66119;DHT22;52912;48.564;9.302;2023-04-25T10:16:51;7.63;89.71
66119;DHT22;52912;48.564;9.302;2023-04-25T10:19:17;7.42;89.37
66119;DHT22;52912;48.564;9.302;2023-04-25T10:21:48;7.46;90.80
66119;DHT22;52912;48.564;9.302;2023-04-25T10:24:15;7.46;88.32
66119;DHT22;52912;48.564;9.302;2023-04-25T10:26:42;7.43;87.57
66119;DHT22;52912;48.564;9.302;2023-04-25T10:29:09;7.40;88.12
66119;DHT22;52912;48.564;9.302;2023-04-25T10:31:44;7.42;88.68
66119;DHT22;52912;48.564;9.302;2023-04-25T10:34:10;7.43;89.26
66119;DHT22;52912;48.564;9.302;2023-04-25T10:36:36;7.32;88.73
66119;DHT22;52912;48.564;9.302;2023-04-25T10:39:03;7.18;89.73
66119;DHT22;52912;48.564;9.302;2023-04-25T10:41:29;7.18;89.02
66119;DHT22;52912;48.564;9.302;2023-04-25T10:44:00;7.16;89.60
66119;DHT22;52912;48.564;9.302;2023-04-25T10:46:26;7.19;90.48
66119;DHT22;52912;48.564;9.302;2023-04-25T10:48:53;7.05;90.59
66119;DHT22;52912;48.564;9.302;2023-04-25T10:51:21;6.95;90.18
66119;DHT22;52912;48.564;9.302;2023-04-25T10:53:56;7.02;90.49
66119;DHT22;52912;48.564;9.302;2023-04-25T10:56:23;6.77;90.12
66119;DHT22;52912;48.564;9.302;2023-04-25T10:58:50;6.73;90.95
66119;DHT22;52912;48.564;9.302;2023-04-25T11:01:24;6.77;92.03
66119;DHT22;52912;48.564;9.302;2023-04-25T11:03:57;6.77;91.44
66119;DHT22;52912;48.564;9.302;2023-04-25T11:06:29;6.90;91.81
66119;DHT22;52912;48.564;9.302;2023-04-25T11:08:54;6.69;91.49
66119;DHT22;52912;48.564;9.302;2023-04-25T11:11:20;6.80;91.20
66119;DHT22;52912;48.564;9.302;2023-04-25T11:13:47;6.66;89.76
66119;DHT22;52912;48.564;9.302;2023-04-25T11:16:13;6.54;90.56
66119;DHT22;52912;48.564;9.302;2023-04-25T11:18:42;6.69;91.35
66119;DHT22;52912;48.564;9.302;2023-04-25T11:21:08;6.80;92.02
66119;DHT22;52912;48.564;9.302;2023-04-25T11:23:33;6.84;91.29
66119;DHT22;52912;48.564;9.302;2023-04-25T11:25:58;6.59;90.96
66119;DHT22;52912;48.564;9.302;2023-04-25T11:28:24;6.54;91.05
66119;DHT22;52912;48.564;9.302;2023-04-25T11:30:50;6.77;91.91
66119;DHT22;52912;48.564;9.302;2023-04-25T11:33:15;6.69;92.34
66119;DHT22;52912;48.564;9.302;2023-04-25T11:35:42;6.74;91.20
66119;DHT22;52912;48.564;9.302;2023-04-25T11:38:07;6.67;91.36
66119;DHT22;52912;48.564;9.302;2023-04-25T11:40:33;6.93;91.57
66119;DHT22;52912;48.564;9.302;2023-04-25T11:43:00;6.67;90.24
66119;DHT22;52912;48.564;9.302;2023-04-25T11:45:26;6.67;91.03
66119;DHT22;52912;48.564;9.302;2023-04-25T11:47:52;6.83;91.72
66119;DHT22;52912;48.564;9.302;2023-04-25T11:50:17;6.53;91.12
66119;DHT22;52912;48.564;9.302;2023-04-25T11:52:47;6.43;91.01
66119;DHT22;52912;48.564;9.302;2023-04-25T11:55:14;6.32;91.07
66119;DHT22;52912;48.564;9.302;2023-04-25T11:57:40;6.39;91.11
66119;DHT22;52912;48.564;9.302;2023-04-25T12:00:08;6.25;92.04
66119;DHT22;52912;48.564;9.302;2023-04-25T12:02:34;6.24;91.14
66119;DHT22;52912;48.564;9.302;2023-04-25T12:05:00;6.40;92.10
66119;DHT22;52912;48.564;9.302;2023-04-25T12:07:28;6.36;91.33
66119;DHT22;52912;48.564;9.302;2023-04-25T12:09:55;6.31;91.24
66119;DHT22;52912;48.564;9.302;2023-04-25T12:12:21;6.21;91.76
66119;DHT22;52912;48.564;9.302;2023-04-25T12:14:47;6.15;90.95
66119;DHT22;52912;48.564;9.302;2023-04-25T12:17:12;6.32;91.86
66119;DHT22;52912;48.564;9.302;2023-04-25T12:19:38;6.20;90.96
66119;DHT22;52912;48.564;9.302;2023-04-25T12:22:18;6.26;92.04
66119;DHT22;52912;48.564;9.302;2023-04-25T12:24:44;6.26;91.27
66119;DHT22;52912;48.564;9.302;2023-04-25T12:27:14;6.22;92.02
66119;DHT22;52912;48.564;9.302;2023-04-25T12:29:50;6.38;92.32
66119;DHT22;52912;48.564;9.302;2023-04-25T12:32:15;6.59;92.27
66119;DHT22;52912;48.564;9.302;2023-04-25T12:34:41;6.56;91.14
66119;DHT22;52912;48.564;9.302;2023-04-25T12:37:06;7.00;91.94
66119;DHT22;52912;48.564;9.302;2023-04-25T12:39:32;6.87;90.68
66119;DHT22;52912;48.564;9.302;2023-04-25T12:41:57;6.95;91.19
66119;DHT22;52912;48.564;9.302;2023-04-25T12:44:24;6.67;90.93
66119;DHT22;52912;48.564;9.302;2023-04-25T12:46:50;7.02;91.23
66119;DHT22;52912;48.564;9.302;2023-04-25T12:49:15;6.95;90.77
66119;DHT22;52912;48.564;9.302;2023-04-25T12:51:41;7.07;91.05
66119;DHT22;52912;48.564;9.302;2023-04-25T12:54:06;7.28;90.88
66119;DHT22;52912;48.564;9.302;2023-04-25T12:56:32;7.71;91.56
66119;DHT22;52912;48.564;9.302;2023-04-25T12:58:57;7.78;90.44
66119;DHT22;52912;48.564;9.302;2023-04-25T13:01:25;7.77;89.56
66119;DHT22;52912;48.564;9.302;2023-04-25T13:03:50;7.98;90.77
66119;DHT22;52912;48.564;9.302;2023-04-25T13:06:17;7.83;89.01
66119;DHT22;52912;48.564;9.302;2023-04-25T13:08:43;7.94;89.21
66119;DHT22;52912;48.564;9.302;2023-04-25T13:11:08;8.15;90.17
66119;DHT22;52912;48.564;9.302;2023-04-25T13:13:34;8.35;89.21
66119;DHT22;52912;48.564;9.302;2023-04-25T13:16:00;8.19;88.60
66119;DHT22;52912;48.564;9.302;2023-04-25T13:18:27;7.97;88.52
66119;DHT22;52912;48.564;9.302;2023-04-25T13:20:52;8.15;88.55
66119;DHT22;52912;48.564;9.302;2023-04-25T13:23:18;8.28;89.21
66119;DHT22;52912;48.564;9.302;2023-04-25T13:25:43;8.05;87.85
66119;DHT22;52912;48.564;9.302;2023-04-25T13:28:09;7.94;89.63
66119;DHT22;52912;48.564;9.302;2023-04-25T13:30:34;8.12;89.24
66119;DHT22;52912;48.564;9.302;2023-04-25T13:33:00;8.29;89.20
66119;DHT22;52912;48.564;9.302;2023-04-25T13:35:27;8.65;88.48
66119;DHT22;52912;48.564;9.302;2023-04-25T13:37:52;8.61;87.35
66119;DHT22;52912;48.564;9.302;2023-04-25T13:40:18;8.59;87.83
66119;DHT22;52912;48.564;9.302;2023-04-25T13:42:43;8.78;88.03
66119;DHT22;52912;48.564;9.302;2023-04-25T13:45:09;9.02;88.00
66119;DHT22;52912;48.564;9.302;2023-04-25T13:47:34;9.30;86.60
66119;DHT22;52912;48.564;9.302;2023-04-25T13:50:00;9.74;86.33
66119;DHT22;52912;48.564;9.302;2023-04-25T13:52:27;10.23;82.16
66119;DHT22;52912;48.564;9.302;2023-04-25T13:54:52;10.09;82.69
66119;DHT22;52912;48.564;9.302;2023-04-25T13:57:18;10.16;81.71
66119;DHT22;52912;48.564;9.302;2023-04-25T13:59:43;10.22;80.80
66119;DHT22;52912;48.564;9.302;2023-04-25T14:02:09;10.68;81.43
66119;DHT22;52912;48.564;9.302;2023-04-25T14:04:34;11.98;79.52
66119;DHT22;52912;48.564;9.302;2023-04-25T14:07:00;12.71;76.36
66119;DHT22;52912;48.564;9.302;2023-04-25T14:09:27;13.32;74.22
66119;DHT22;52912;48.564;9.302;2023-04-25T14:11:52;12.40;75.46
66119;DHT22;52912;48.564;9.302;2023-04-25T14:14:18;12.50;74.91
66119;DHT22;52912;48.564;9.302;2023-04-25T14:16:43;11.71;76.47
66119;DHT22;52912;48.564;9.302;2023-04-25T14:19:09;11.34;76.72
66119;DHT22;52912;48.564;9.302;2023-04-25T14:21:34;11.89;77.03
66119;DHT22;52912;48.564;9.302;2023-04-25T14:24:00;12.91;73.68
66119;DHT22;52912;48.564;9.302;2023-04-25T14:26:27;12.60;74.60
66119;DHT22;52912;48.564;9.302;2023-04-25T14:28:52;12.12;74.89
66119;DHT22;52912;48.564;9.302;2023-04-25T14:31:18;12.40;74.49
66119;DHT22;52912;48.564;9.302;2023-04-25T14:33:43;12.78;72.63
66119;DHT22;52912;48.564;9.302;2023-04-25T14:36:09;12.71;72.87
66119;DHT22;52912;48.564;9.302;2023-04-25T14:38:34;13.44;74.32
66119;DHT22;52912;48.564;9.302;2023-04-25T14:41:00;14.22;69.82
66119;DHT22;52912;48.564;9.302;2023-04-25T14:43:27;14.67;69.48
66119;DHT22;52912;48.564;9.302;2023-04-25T14:45:53;14.57;68.72
66119;DHT22;52912;48.564;9.302;2023-04-25T14:48:18;13.86;69.25
66119;DHT22;52912;48.564;9.302;2023-04-25T14:50:44;13.36;71.64
66119;DHT22;52912;48.564;9.302;2023-04-25T14:53:09;12.92;72.31
66119;DHT22;52912;48.564;9.302;2023-04-25T14:55:35;13.09;72.36
66119;DHT22;52912;48.564;9.302;2023-04-25T14:58:00;13.56;70.76
66119;DHT22;52912;48.564;9.302;2023-04-25T15:00:27;14.18;70.11
66119;DHT22;52912;48.564;9.302;2023-04-25T15:02:53;14.29;68.96
66119;DHT22;52912;48.564;9.302;2023-04-25T15:05:18;13.95;68.96
66119;DHT22;52912;48.564;9.302;2023-04-25T15:07:44;14.25;68.21
66119;DHT22;52912;48.564;9.302;2023-04-25T15:10:09;14.84;65.81
66119;DHT22;52912;48.564;9.302;2023-04-25T15:12:35;15.12;66.43
66119;DHT22;52912;48.564;9.302;2023-04-25T15:15:01;13.85;69.37
66119;DHT22;52912;48.564;9.302;2023-04-25T15:17:28;13.42;70.61
66119;DHT22;52912;48.564;9.302;2023-04-25T15:19:53;13.06;71.40
66119;DHT22;52912;48.564;9.302;2023-04-25T15:22:19;13.61;70.26
66119;DHT22;52912;48.564;9.302;2023-04-25T15:24:44;13.73;67.89
66119;DHT22;52912;48.564;9.302;2023-04-25T15:27:10;14.20;67.81
66119;DHT22;52912;48.564;9.302;2023-04-25T15:29:35;14.25;68.91
66119;DHT22;52912;48.564;9.302;2023-04-25T15:32:00;13.37;68.58
66119;DHT22;52912;48.564;9.302;2023-04-25T15:34:27;13.11;70.00
66119;DHT22;52912;48.564;9.302;2023-04-25T15:36:53;12.77;70.34